sensor_id;sensor_type;location;lat;lon;timestamp;pressure;altitude;pressure_sealevel;temperature;humidity
58243;BME280;50118;53.232;8.252;2023-03-19T00:01:41;100999.22;;;4.69;100.00
58243;BME280;50118;53.232;8.252;2023-03-19T00:04:07;101002.16;;;4.64;100.00
58243;BME280;50118;53.232;8.252;2023-03-19T00:06:32;101000.59;;;4.62;100.00
58243;BME280;50118;53.232;8.252;2023-03-19T00:08:58;101002.16;;;4.64;100.00
58243;BME280;50118;53.232;8.252;2023-03-19T00:11:23;101001.31;;;4.64;100.00
58243;BME280;50118;53.232;8.252;2023-03-19T00:13:49;101006.59;;;4.64;100.00
58243;BME280;50118;53.232;8.252;2023-03-19T00:16:15;101007.53;;;4.63;100.00
58243;BME280;50118;53.232;8.252;2023-03-19T00:18:40;101000.59;;;4.62;100.00
58243;BME280;50118;53.232;8.252;2023-03-19T00:21:05;101006.59;;;4.64;100.00
58243;BME280;50118;53.232;8.252;2023-03-19T00:23:31;101003.16;;;4.76;100.00
58243;BME280;50118;53.232;8.252;2023-03-19T00:25:56;101008.56;;;4.88;100.00
58243;BME280;50118;53.232;8.252;2023-03-19T00:28:22;100999.91;;;4.85;100.00
58243;BME280;50118;53.232;8.252;2023-03-19T00:30:47;101008.66;;;4.86;100.00
58243;BME280;50118;53.232;8.252;2023-03-19T00:33:13;101010.25;;;4.89;100.00
58243;BME280;50118;53.232;8.252;2023-03-19T00:35:39;101007.72;;;4.87;100.00
58243;BME280;50118;53.232;8.252;2023-03-19T00:38:04;101000.56;;;4.89;100.00
58243;BME280;50118;53.232;8.252;2023-03-19T00:40:30;100995.88;;;4.80;100.00
58243;BME280;50118;53.232;8.252;2023-03-19T00:42:56;100997.31;;;4.71;100.00
58243;BME280;50118;53.232;8.252;2023-03-19T00:45:21;101002.41;;;4.74;100.00
58243;BME280;50118;53.232;8.252;2023-03-19T00:47:47;101006.44;;;4.80;100.00
58243;BME280;50118;53.232;8.252;2023-03-19T00:50:12;101001.19;;;4.93;100.00
58243;BME280;50118;53.232;8.252;2023-03-19T00:52:38;101003.09;;;4.91;100.00
58243;BME280;50118;53.232;8.252;2023-03-19T00:55:03;101002.88;;;4.94;100.00
58243;BME280;50118;53.232;8.252;2023-03-19T00:57:29;101002.66;;;4.84;100.00
58243;BME280;50118;53.232;8.252;2023-03-19T00:59:54;101011.59;;;4.81;100.00
58243;BME280;50118;53.232;8.252;2023-03-19T01:02:20;101031.97;;;4.79;100.00
58243;BME280;50118;53.232;8.252;2023-03-19T01:04:48;101027.63;;;4.78;100.00
58243;BME280;50118;53.232;8.252;2023-03-19T01:07:13;101024.59;;;4.84;100.00
58243;BME280;50118;53.232;8.252;2023-03-19T01:09:40;101020.06;;;4.86;100.00
58243;BME280;50118;53.232;8.252;2023-03-19T01:12:06;101013.75;;;5.02;100.00
58243;BME280;50118;53.232;8.252;2023-03-19T01:14:32;101010.13;;;5.56;100.00
58243;BME280;50118;53.232;8.252;2023-03-19T01:16:58;101012.66;;;5.57;100.00
58243;BME280;50118;53.232;8.252;2023-03-19T01:19:23;101009.72;;;5.62;100.00
58243;BME280;50118;53.232;8.252;2023-03-19T01:21:49;101005.06;;;5.66;100.00
58243;BME280;50118;53.232;8.252;2023-03-19T01:24:15;101009.47;;;5.78;100.00
58243;BME280;50118;53.232;8.252;2023-03-19T01:26:42;101014.25;;;5.86;100.00
58243;BME280;50118;53.232;8.252;2023-03-19T01:29:08;101008.50;;;5.92;100.00
58243;BME280;50118;53.232;8.252;2023-03-19T01:31:34;101003.28;;;6.16;100.00
58243;BME280;50118;53.232;8.252;2023-03-19T01:34:00;101002.66;;;6.25;100.00
58243;BME280;50118;53.232;8.252;2023-03-19T01:36:26;101001.97;;;6.34;100.00
58243;BME280;50118;53.232;8.252;2023-03-19T01:38:52;101008.75;;;6.39;100.00
58243;BME280;50118;53.232;8.252;2023-03-19T01:41:18;101007.84;;;6.51;100.00
58243;BME280;50118;53.232;8.252;2023-03-19T01:43:44;101001.03;;;6.60;100.00
58243;BME280;50118;53.232;8.252;2023-03-19T01:46:22;100996.22;;;6.65;100.00
58243;BME280;50118;53.232;8.252;2023-03-19T01:48:53;101016.84;;;6.72;100.00
58243;BME280;50118;53.232;8.252;2023-03-19T01:51:23;101011.31;;;6.76;100.00
58243;BME280;50118;53.232;8.252;2023-03-19T01:53:56;101005.13;;;6.88;100.00
58243;BME280;50118;53.232;8.252;2023-03-19T01:56:28;101004.41;;;6.97;100.00
58243;BME280;50118;53.232;8.252;2023-03-19T01:58:59;101004.81;;;7.04;100.00
58243;BME280;50118;53.232;8.252;2023-03-19T02:01:27;101008.41;;;7.03;100.00
58243;BME280;50118;53.232;8.252;2023-03-19T02:03:54;101003.34;;;7.00;100.00
58243;BME280;50118;53.232;8.252;2023-03-19T02:06:20;101001.66;;;6.99;100.00
58243;BME280;50118;53.232;8.252;2023-03-19T02:08:47;101008.88;;;6.97;100.00
58243;BME280;50118;53.232;8.252;2023-03-19T02:11:14;101003.59;;;6.97;100.00
58243;BME280;50118;53.232;8.252;2023-03-19T02:13:40;100996.47;;;6.97;100.00
58243;BME280;50118;53.232;8.252;2023-03-19T02:16:06;101007.78;;;6.99;100.00
58243;BME280;50118;53.232;8.252;2023-03-19T02:18:31;100998.69;;;7.03;100.00
58243;BME280;50118;53.232;8.252;2023-03-19T02:21:26;100997.91;;;7.01;100.00
58243;BME280;50118;53.232;8.252;2023-03-19T02:24:15;101006.72;;;7.02;100.00
58243;BME280;50118;53.232;8.252;2023-03-19T02:26:43;101005.16;;;6.99;100.00
58243;BME280;50118;53.232;8.252;2023-03-19T02:29:09;101012.16;;;7.00;100.00
58243;BME280;50118;53.232;8.252;2023-03-19T02:31:35;101006.34;;;6.95;100.00
58243;BME280;50118;53.232;8.252;2023-03-19T02:34:31;101006.13;;;6.98;100.00
58243;BME280;50118;53.232;8.252;2023-03-19T02:36:58;101003.44;;;6.87;100.00
58243;BME280;50118;53.232;8.252;2023-03-19T02:40:01;101007.50;;;6.80;100.00
58243;BME280;50118;53.232;8.252;2023-03-19T02:42:29;101000.50;;;6.79;100.00
58243;BME280;50118;53.232;8.252;2023-03-19T02:44:55;100998.19;;;6.74;100.00
58243;BME280;50118;53.232;8.252;2023-03-19T02:47:21;100996.19;;;6.78;100.00
58243;BME280;50118;53.232;8.252;2023-03-19T02:49:47;101004.47;;;6.73;100.00
58243;BME280;50118;53.232;8.252;2023-03-19T02:52:12;101005.28;;;6.73;100.00
58243;BME280;50118;53.232;8.252;2023-03-19T02:54:38;101007.00;;;6.75;100.00
58243;BME280;50118;53.232;8.252;2023-03-19T02:57:04;101002.09;;;6.81;100.00
58243;BME280;50118;53.232;8.252;2023-03-19T02:59:29;101007.28;;;6.83;100.00
58243;BME280;50118;53.232;8.252;2023-03-19T03:01:55;101009.91;;;6.83;100.00
58243;BME280;50118;53.232;8.252;2023-03-19T03:04:20;101010.59;;;6.73;100.00
58243;BME280;50118;53.232;8.252;2023-03-19T03:06:46;101005.63;;;6.69;100.00
58243;BME280;50118;53.232;8.252;2023-03-19T03:09:12;101008.53;;;6.66;100.00
58243;BME280;50118;53.232;8.252;2023-03-19T03:11:38;101009.06;;;6.58;100.00
58243;BME280;50118;53.232;8.252;2023-03-19T03:14:06;101006.44;;;6.58;100.00
58243;BME280;50118;53.232;8.252;2023-03-19T03:16:31;101009.41;;;6.53;100.00
58243;BME280;50118;53.232;8.252;2023-03-19T03:18:57;101016.50;;;6.53;100.00
58243;BME280;50118;53.232;8.252;2023-03-19T03:21:23;101008.06;;;6.48;100.00
58243;BME280;50118;53.232;8.252;2023-03-19T03:23:50;101004.00;;;6.55;100.00
58243;BME280;50118;53.232;8.252;2023-03-19T03:26:16;101003.78;;;6.58;100.00
58243;BME280;50118;53.232;8.252;2023-03-19T03:28:41;101005.69;;;6.56;100.00
58243;BME280;50118;53.232;8.252;2023-03-19T03:31:07;101001.34;;;6.55;100.00
58243;BME280;50118;53.232;8.252;2023-03-19T03:33:33;100997.88;;;6.54;100.00
58243;BME280;50118;53.232;8.252;2023-03-19T03:35:59;100989.31;;;6.51;100.00
58243;BME280;50118;53.232;8.252;2023-03-19T03:38:25;100992.19;;;6.48;100.00
58243;BME280;50118;53.232;8.252;2023-03-19T03:40:52;100990.72;;;6.44;100.00
58243;BME280;50118;53.232;8.252;2023-03-19T03:43:18;100995.25;;;6.42;100.00
58243;BME280;50118;53.232;8.252;2023-03-19T03:45:45;101002.97;;;6.45;100.00
58243;BME280;50118;53.232;8.252;2023-03-19T03:48:12;101005.63;;;6.45;100.00
58243;BME280;50118;53.232;8.252;2023-03-19T03:50:38;101007.03;;;6.38;100.00
58243;BME280;50118;53.232;8.252;2023-03-19T03:53:03;101008.97;;;6.35;100.00
58243;BME280;50118;53.232;8.252;2023-03-19T03:55:30;101009.19;;;6.32;100.00
58243;BME280;50118;53.232;8.252;2023-03-19T03:57:56;101009.19;;;6.32;100.00
58243;BME280;50118;53.232;8.252;2023-03-19T04:00:22;101007.03;;;6.38;100.00
58243;BME280;50118;53.232;8.252;2023-03-19T04:02:48;101006.81;;;6.41;100.00
58243;BME280;50118;53.232;8.252;2023-03-19T04:05:14;101007.13;;;6.49;100.00
58243;BME280;50118;53.232;8.252;2023-03-19T04:07:40;101010.78;;;6.59;100.00
58243;BME280;50118;53.232;8.252;2023-03-19T04:10:08;101006.09;;;6.63;100.00
58243;BME280;50118;53.232;8.252;2023-03-19T04:12:36;101010.91;;;6.69;100.00
58243;BME280;50118;53.232;8.252;2023-03-19T04:15:03;101016.09;;;6.70;100.00
58243;BME280;50118;53.232;8.252;2023-03-19T04:17:28;101021.63;;;6.67;100.00
58243;BME280;50118;53.232;8.252;2023-03-19T04:19:54;101020.06;;;6.65;100.00
58243;BME280;50118;53.232;8.252;2023-03-19T04:22:19;101022.59;;;6.66;100.00
58243;BME280;50118;53.232;8.252;2023-03-19T04:24:45;101021.19;;;6.73;100.00
58243;BME280;50118;53.232;8.252;2023-03-19T04:27:10;101020.22;;;6.75;100.00
58243;BME280;50118;53.232;8.252;2023-03-19T04:29:36;101026.97;;;6.79;100.00
58243;BME280;50118;53.232;8.252;2023-03-19T04:32:01;101031.44;;;6.78;100.00
58243;BME280;50118;53.232;8.252;2023-03-19T04:34:27;101033.97;;;6.80;100.00
58243;BME280;50118;53.232;8.252;2023-03-19T04:36:52;101033.09;;;6.79;100.00
58243;BME280;50118;53.232;8.252;2023-03-19T04:39:17;101037.34;;;6.82;100.00
58243;BME280;50118;53.232;8.252;2023-03-19T04:41:43;101036.03;;;6.87;100.00
58243;BME280;50118;53.232;8.252;2023-03-19T04:44:09;101033.28;;;6.89;100.00
58243;BME280;50118;53.232;8.252;2023-03-19T04:46:35;101037.13;;;6.85;100.00
58243;BME280;50118;53.232;8.252;2023-03-19T04:49:01;101033.50;;;6.86;100.00
58243;BME280;50118;53.232;8.252;2023-03-19T04:51:27;101030.84;;;6.86;100.00
58243;BME280;50118;53.232;8.252;2023-03-19T04:53:52;101036.91;;;6.88;100.00
58243;BME280;50118;53.232;8.252;2023-03-19T04:56:18;101040.06;;;6.93;100.00
58243;BME280;50118;53.232;8.252;2023-03-19T04:58:43;101041.72;;;6.94;100.00
58243;BME280;50118;53.232;8.252;2023-03-19T05:01:09;101047.34;;;6.89;100.00
58243;BME280;50118;53.232;8.252;2023-03-19T05:03:35;101043.88;;;6.89;100.00
58243;BME280;50118;53.232;8.252;2023-03-19T05:06:00;101043.16;;;6.87;100.00
58243;BME280;50118;53.232;8.252;2023-03-19T05:08:26;101038.78;;;6.86;100.00
58243;BME280;50118;53.232;8.252;2023-03-19T05:10:51;101041.44;;;6.86;100.00
58243;BME280;50118;53.232;8.252;2023-03-19T05:13:17;101043.38;;;6.84;100.00
58243;BME280;50118;53.232;8.252;2023-03-19T05:15:43;101042.41;;;6.85;100.00
58243;BME280;50118;53.232;8.252;2023-03-19T05:18:10;101045.78;;;6.87;100.00
58243;BME280;50118;53.232;8.252;2023-03-19T05:20:36;101044.97;;;6.86;100.00
58243;BME280;50118;53.232;8.252;2023-03-19T05:23:02;101045.06;;;6.85;100.00
58243;BME280;50118;53.232;8.252;2023-03-19T05:25:27;101047.50;;;6.88;100.00
58243;BME280;50118;53.232;8.252;2023-03-19T05:27:54;101044.09;;;6.86;100.00
58243;BME280;50118;53.232;8.252;2023-03-19T05:30:20;101049.50;;;6.84;100.00
58243;BME280;50118;53.232;8.252;2023-03-19T05:32:45;101046.75;;;6.86;100.00
58243;BME280;50118;53.232;8.252;2023-03-19T05:35:11;101051.31;;;6.84;100.00
58243;BME280;50118;53.232;8.252;2023-03-19T05:37:37;101053.00;;;6.85;100.00
58243;BME280;50118;53.232;8.252;2023-03-19T05:40:04;101051.31;;;6.84;100.00
58243;BME280;50118;53.232;8.252;2023-03-19T05:42:29;101060.22;;;6.83;100.00
58243;BME280;50118;53.232;8.252;2023-03-19T05:44:55;101061.91;;;6.84;100.00
58243;BME280;50118;53.232;8.252;2023-03-19T05:47:20;101059.75;;;6.89;100.00
58243;BME280;50118;53.232;8.252;2023-03-19T05:49:46;101056.31;;;7.00;100.00
58243;BME280;50118;53.232;8.252;2023-03-19T05:52:12;101057.91;;;7.02;100.00
58243;BME280;50118;53.232;8.252;2023-03-19T05:54:38;101055.03;;;7.05;100.00
58243;BME280;50118;53.232;8.252;2023-03-19T05:57:03;101061.38;;;7.03;100.00
58243;BME280;50118;53.232;8.252;2023-03-19T05:59:29;101053.09;;;7.07;100.00
58243;BME280;50118;53.232;8.252;2023-03-19T06:01:54;101069.00;;;7.07;100.00
58243;BME280;50118;53.232;8.252;2023-03-19T06:04:20;101058.41;;;7.07;100.00
58243;BME280;50118;53.232;8.252;2023-03-19T06:06:45;101058.78;;;7.14;100.00
58243;BME280;50118;53.232;8.252;2023-03-19T06:09:11;101059.84;;;7.11;100.00
58243;BME280;50118;53.232;8.252;2023-03-19T06:11:37;101063.25;;;7.14;100.00
58243;BME280;50118;53.232;8.252;2023-03-19T06:14:05;101061.31;;;7.16;100.00
58243;BME280;50118;53.232;8.252;2023-03-19T06:16:31;101068.69;;;7.23;100.00
58243;BME280;50118;53.232;8.252;2023-03-19T06:18:57;101069.28;;;7.27;100.00
58243;BME280;50118;53.232;8.252;2023-03-19T06:21:22;101076.28;;;7.28;100.00
58243;BME280;50118;53.232;8.252;2023-03-19T06:23:50;101076.06;;;7.31;100.00
58243;BME280;50118;53.232;8.252;2023-03-19T06:26:15;101075.84;;;7.34;100.00
58243;BME280;50118;53.232;8.252;2023-03-19T06:28:41;101081.63;;;7.39;100.00
58243;BME280;50118;53.232;8.252;2023-03-19T06:31:06;101077.66;;;7.45;100.00
58243;BME280;50118;53.232;8.252;2023-03-19T06:33:32;101080.81;;;7.50;100.00
58243;BME280;50118;53.232;8.252;2023-03-19T06:35:58;101071.66;;;7.54;100.00
58243;BME280;50118;53.232;8.252;2023-03-19T06:38:23;101070.59;;;7.57;100.00
58243;BME280;50118;53.232;8.252;2023-03-19T06:40:48;101083.38;;;7.63;100.00
58243;BME280;50118;53.232;8.252;2023-03-19T06:43:14;101080.47;;;7.66;100.00
58243;BME280;50118;53.232;8.252;2023-03-19T06:45:40;101083.88;;;7.68;100.00
58243;BME280;50118;53.232;8.252;2023-03-19T06:48:05;101088.91;;;7.71;100.00
58243;BME280;50118;53.232;8.252;2023-03-19T06:50:31;101080.97;;;7.82;100.00
58243;BME280;50118;53.232;8.252;2023-03-19T06:52:56;101089.19;;;7.91;100.00
58243;BME280;50118;53.232;8.252;2023-03-19T06:55:22;101089.69;;;7.96;100.00
58243;BME280;50118;53.232;8.252;2023-03-19T06:57:49;101089.22;;;8.02;100.00
58243;BME280;50118;53.232;8.252;2023-03-19T07:00:15;101099.56;;;8.05;100.00
58243;BME280;50118;53.232;8.252;2023-03-19T07:02:42;101092.94;;;8.11;100.00
58243;BME280;50118;53.232;8.252;2023-03-19T07:05:08;101098.75;;;8.16;100.00
58243;BME280;50118;53.232;8.252;2023-03-19T07:07:34;101101.88;;;8.21;100.00
58243;BME280;50118;53.232;8.252;2023-03-19T07:10:00;101107.53;;;8.28;100.00
58243;BME280;50118;53.232;8.252;2023-03-19T07:12:26;101100.06;;;8.33;100.00
58243;BME280;50118;53.232;8.252;2023-03-19T07:14:53;101108.50;;;8.38;100.00
58243;BME280;50118;53.232;8.252;2023-03-19T07:17:20;101113.34;;;8.44;100.00
58243;BME280;50118;53.232;8.252;2023-03-19T07:19:46;101105.59;;;8.52;100.00
58243;BME280;50118;53.232;8.252;2023-03-19T07:22:11;101112.38;;;8.56;100.00
58243;BME280;50118;53.232;8.252;2023-03-19T07:24:37;101113.56;;;8.64;100.00
58243;BME280;50118;53.232;8.252;2023-03-19T07:27:02;101121.97;;;8.80;100.00
58243;BME280;50118;53.232;8.252;2023-03-19T07:29:27;101114.63;;;8.84;100.00
58243;BME280;50118;53.232;8.252;2023-03-19T07:31:53;101105.53;;;8.86;100.00
58243;BME280;50118;53.232;8.252;2023-03-19T07:34:18;101119.03;;;8.94;100.00
58243;BME280;50118;53.232;8.252;2023-03-19T07:36:44;101118.75;;;9.09;100.00
58243;BME280;50118;53.232;8.252;2023-03-19T07:39:09;101115.47;;;9.16;100.00
58243;BME280;50118;53.232;8.252;2023-03-19T07:41:35;101121.78;;;9.37;100.00
58243;BME280;50118;53.232;8.252;2023-03-19T07:44:00;101123.53;;;9.47;100.00
58243;BME280;50118;53.232;8.252;2023-03-19T07:46:26;101117.19;;;9.60;100.00
58243;BME280;50118;53.232;8.252;2023-03-19T07:48:52;101125.69;;;9.75;100.00
58243;BME280;50118;53.232;8.252;2023-03-19T07:51:17;101130.03;;;9.97;100.00
58243;BME280;50118;53.232;8.252;2023-03-19T07:53:43;101119.50;;;10.26;100.00
58243;BME280;50118;53.232;8.252;2023-03-19T07:56:08;101116.78;;;10.37;100.00
58243;BME280;50118;53.232;8.252;2023-03-19T07:58:34;101124.84;;;10.57;100.00
58243;BME280;50118;53.232;8.252;2023-03-19T08:01:00;101116.88;;;10.67;100.00
58243;BME280;50118;53.232;8.252;2023-03-19T08:03:25;101115.25;;;10.95;100.00
58243;BME280;50118;53.232;8.252;2023-03-19T08:05:51;101118.34;;;11.19;100.00
58243;BME280;50118;53.232;8.252;2023-03-19T08:08:16;101124.81;;;11.27;100.00
58243;BME280;50118;53.232;8.252;2023-03-19T08:10:42;101114.38;;;11.63;100.00
58243;BME280;50118;53.232;8.252;2023-03-19T08:13:07;101119.97;;;11.99;100.00
58243;BME280;50118;53.232;8.252;2023-03-19T08:15:33;101121.59;;;12.19;100.00
58243;BME280;50118;53.232;8.252;2023-03-19T08:18:03;101117.25;;;12.46;100.00
58243;BME280;50118;53.232;8.252;2023-03-19T08:20:29;101127.56;;;12.86;100.00
58243;BME280;50118;53.232;8.252;2023-03-19T08:22:56;101127.34;;;13.70;100.00
58243;BME280;50118;53.232;8.252;2023-03-19T08:25:22;101128.53;;;14.28;100.00
58243;BME280;50118;53.232;8.252;2023-03-19T08:27:48;101135.22;;;14.24;100.00
58243;BME280;50118;53.232;8.252;2023-03-19T08:30:14;101143.03;;;14.86;100.00
58243;BME280;50118;53.232;8.252;2023-03-19T08:32:41;101149.69;;;14.39;95.76
58243;BME280;50118;53.232;8.252;2023-03-19T08:35:09;101157.38;;;14.34;100.00
58243;BME280;50118;53.232;8.252;2023-03-19T08:37:35;101159.59;;;14.12;100.00
58243;BME280;50118;53.232;8.252;2023-03-19T08:40:01;101150.53;;;13.87;100.00
58243;BME280;50118;53.232;8.252;2023-03-19T08:42:28;101155.13;;;13.51;100.00
58243;BME280;50118;53.232;8.252;2023-03-19T08:44:54;101156.09;;;13.68;100.00
58243;BME280;50118;53.232;8.252;2023-03-19T08:47:20;101157.06;;;13.40;100.00
58243;BME280;50118;53.232;8.252;2023-03-19T08:49:49;101155.25;;;13.31;100.00
58243;BME280;50118;53.232;8.252;2023-03-19T08:52:14;101164.44;;;13.47;100.00
58243;BME280;50118;53.232;8.252;2023-03-19T08:54:40;101166.19;;;13.20;100.00
58243;BME280;50118;53.232;8.252;2023-03-19T08:57:05;101160.75;;;13.12;100.00
58243;BME280;50118;53.232;8.252;2023-03-19T08:59:31;101164.94;;;13.14;100.00
58243;BME280;50118;53.232;8.252;2023-03-19T09:01:56;101164.00;;;12.87;100.00
58243;BME280;50118;53.232;8.252;2023-03-19T09:04:22;101166.94;;;12.94;100.00
58243;BME280;50118;53.232;8.252;2023-03-19T09:06:47;101164.78;;;12.98;100.00
58243;BME280;50118;53.232;8.252;2023-03-19T09:09:21;101166.34;;;12.73;100.00
58243;BME280;50118;53.232;8.252;2023-03-19T09:11:48;101166.91;;;12.66;100.00
58243;BME280;50118;53.232;8.252;2023-03-19T09:14:14;101175.16;;;12.55;100.00
58243;BME280;50118;53.232;8.252;2023-03-19T09:16:41;101173.16;;;12.85;100.00
58243;BME280;50118;53.232;8.252;2023-03-19T09:19:07;101178.56;;;13.03;100.00
58243;BME280;50118;53.232;8.252;2023-03-19T09:21:34;101180.69;;;12.71;100.00
58243;BME280;50118;53.232;8.252;2023-03-19T09:23:59;101181.91;;;12.49;100.00
58243;BME280;50118;53.232;8.252;2023-03-19T09:26:25;101184.16;;;12.54;100.00
58243;BME280;50118;53.232;8.252;2023-03-19T09:28:51;101186.63;;;12.65;100.00
58243;BME280;50118;53.232;8.252;2023-03-19T09:31:16;101183.72;;;12.21;100.00
58243;BME280;50118;53.232;8.252;2023-03-19T09:33:41;101187.09;;;12.13;100.00
58243;BME280;50118;53.232;8.252;2023-03-19T09:36:07;101184.25;;;12.25;100.00
58243;BME280;50118;53.232;8.252;2023-03-19T09:38:33;101194.38;;;12.68;100.00
58243;BME280;50118;53.232;8.252;2023-03-19T09:41:09;101190.28;;;12.64;100.00
58243;BME280;50118;53.232;8.252;2023-03-19T09:46:44;101189.50;;;13.10;100.00
58243;BME280;50118;53.232;8.252;2023-03-19T09:49:20;101192.69;;;13.31;100.00
58243;BME280;50118;53.232;8.252;2023-03-19T09:54:34;101205.13;;;13.32;100.00
58243;BME280;50118;53.232;8.252;2023-03-19T09:57:03;101204.84;;;13.35;100.00
58243;BME280;50118;53.232;8.252;2023-03-19T09:59:29;101210.66;;;13.21;100.00
58243;BME280;50118;53.232;8.252;2023-03-19T10:05:09;101209.31;;;12.89;100.00
58243;BME280;50118;53.232;8.252;2023-03-19T10:16:29;101218.44;;;12.59;100.00
58243;BME280;50118;53.232;8.252;2023-03-19T10:18:59;101213.94;;;12.59;100.00
58243;BME280;50118;53.232;8.252;2023-03-19T10:21:46;101212.97;;;12.88;100.00
58243;BME280;50118;53.232;8.252;2023-03-19T10:24:33;101214.03;;;13.23;100.00
58243;BME280;50118;53.232;8.252;2023-03-19T10:27:17;101214.28;;;13.02;100.00
58243;BME280;50118;53.232;8.252;2023-03-19T10:29:43;101222.34;;;12.92;100.00
58243;BME280;50118;53.232;8.252;2023-03-19T10:32:31;101222.88;;;12.78;100.00
58243;BME280;50118;53.232;8.252;2023-03-19T10:35:23;101217.28;;;12.71;100.00
58243;BME280;50118;53.232;8.252;2023-03-19T10:37:54;101223.69;;;12.41;100.00
58243;BME280;50118;53.232;8.252;2023-03-19T10:43:24;101234.38;;;12.41;100.00
58243;BME280;50118;53.232;8.252;2023-03-19T10:45:51;101235.41;;;12.30;100.00
58243;BME280;50118;53.232;8.252;2023-03-19T10:48:18;101241.56;;;12.40;100.00
58243;BME280;50118;53.232;8.252;2023-03-19T10:55:45;101248.53;;;12.04;100.00
58243;BME280;50118;53.232;8.252;2023-03-19T10:58:19;101253.16;;;12.02;100.00
58243;BME280;50118;53.232;8.252;2023-03-19T11:00:46;101251.22;;;12.04;100.00
58243;BME280;50118;53.232;8.252;2023-03-19T11:03:29;101244.13;;;12.22;100.00
58243;BME280;50118;53.232;8.252;2023-03-19T11:08:39;101247.31;;;12.45;100.00
58243;BME280;50118;53.232;8.252;2023-03-19T11:11:23;101253.97;;;12.22;100.00
58243;BME280;50118;53.232;8.252;2023-03-19T11:13:50;101260.16;;;12.22;100.00
58243;BME280;50118;53.232;8.252;2023-03-19T11:16:16;101253.72;;;12.05;100.00
58243;BME280;50118;53.232;8.252;2023-03-19T11:18:46;101254.72;;;12.14;100.00
58243;BME280;50118;53.232;8.252;2023-03-19T11:21:29;101254.25;;;12.28;100.00
58243;BME280;50118;53.232;8.252;2023-03-19T11:24:02;101248.16;;;12.83;100.00
58243;BME280;50118;53.232;8.252;2023-03-19T11:26:28;101244.50;;;13.40;100.00
58243;BME280;50118;53.232;8.252;2023-03-19T11:29:04;101248.19;;;13.75;100.00
58243;BME280;50118;53.232;8.252;2023-03-19T11:31:37;101244.16;;;14.41;100.00
58243;BME280;50118;53.232;8.252;2023-03-19T11:45:00;101243.81;;;13.92;98.18
58243;BME280;50118;53.232;8.252;2023-03-19T11:47:38;101253.09;;;13.79;100.00
58243;BME280;50118;53.232;8.252;2023-03-19T11:50:25;101250.97;;;14.09;99.50
58243;BME280;50118;53.232;8.252;2023-03-19T11:53:18;101256.19;;;14.89;94.71
58243;BME280;50118;53.232;8.252;2023-03-19T11:56:07;101248.34;;;15.72;89.50
58243;BME280;50118;53.232;8.252;2023-03-19T12:04:48;101250.69;;;15.58;81.86
58243;BME280;50118;53.232;8.252;2023-03-19T12:21:13;101253.38;;;14.65;87.54
58243;BME280;50118;53.232;8.252;2023-03-19T12:24:03;101253.31;;;14.56;87.26
58243;BME280;50118;53.232;8.252;2023-03-19T12:29:29;101242.91;;;14.53;88.95
58243;BME280;50118;53.232;8.252;2023-03-19T12:34:44;101238.53;;;14.00;94.68
58243;BME280;50118;53.232;8.252;2023-03-19T12:37:29;101240.25;;;14.09;92.07
58243;BME280;50118;53.232;8.252;2023-03-19T12:42:56;101236.91;;;14.07;92.98
58243;BME280;50118;53.232;8.252;2023-03-19T12:45:54;101241.94;;;14.10;94.67
58243;BME280;50118;53.232;8.252;2023-03-19T12:48:28;101238.06;;;14.31;94.30
58243;BME280;50118;53.232;8.252;2023-03-19T12:51:00;101241.66;;;14.66;89.97
58243;BME280;50118;53.232;8.252;2023-03-19T12:56:04;101230.88;;;13.87;90.79
58243;BME280;50118;53.232;8.252;2023-03-19T12:58:58;101236.16;;;13.97;91.70
58243;BME280;50118;53.232;8.252;2023-03-19T13:01:29;101239.00;;;14.22;89.02
58243;BME280;50118;53.232;8.252;2023-03-19T13:06:48;101234.81;;;14.45;89.37
58243;BME280;50118;53.232;8.252;2023-03-19T13:09:39;101239.97;;;14.99;90.28
58243;BME280;50118;53.232;8.252;2023-03-19T13:12:21;101243.34;;;15.09;86.39
58243;BME280;50118;53.232;8.252;2023-03-19T13:20:35;101247.22;;;14.46;90.12
58243;BME280;50118;53.232;8.252;2023-03-19T13:23:05;101240.22;;;14.80;86.46
58243;BME280;50118;53.232;8.252;2023-03-19T13:25:35;101234.19;;;14.51;87.45
58243;BME280;50118;53.232;8.252;2023-03-19T13:28:08;101244.38;;;14.74;85.33
58243;BME280;50118;53.232;8.252;2023-03-19T13:30:34;101240.63;;;14.14;88.94
58243;BME280;50118;53.232;8.252;2023-03-19T13:33:05;101238.38;;;14.01;88.12
58243;BME280;50118;53.232;8.252;2023-03-19T13:35:39;101239.22;;;14.02;90.52
58243;BME280;50118;53.232;8.252;2023-03-19T13:38:17;101241.50;;;14.15;88.10
58243;BME280;50118;53.232;8.252;2023-03-19T13:40:46;101244.91;;;14.25;87.48
58243;BME280;50118;53.232;8.252;2023-03-19T13:46:03;101244.13;;;14.33;87.18
58243;BME280;50118;53.232;8.252;2023-03-19T13:57:01;101253.00;;;13.71;88.98
58243;BME280;50118;53.232;8.252;2023-03-19T13:59:34;101239.41;;;13.82;89.18
58243;BME280;50118;53.232;8.252;2023-03-19T14:02:02;101233.66;;;13.77;88.95
58243;BME280;50118;53.232;8.252;2023-03-19T14:04:32;101237.41;;;13.85;87.81
58243;BME280;50118;53.232;8.252;2023-03-19T14:09:44;101238.69;;;13.98;85.90
58243;BME280;50118;53.232;8.252;2023-03-19T14:12:20;101235.25;;;13.88;86.75
58243;BME280;50118;53.232;8.252;2023-03-19T14:17:36;101233.09;;;13.92;83.32
58243;BME280;50118;53.232;8.252;2023-03-19T14:25:22;101252.41;;;13.59;85.17
58243;BME280;50118;53.232;8.252;2023-03-19T14:27:49;101254.09;;;13.60;84.42
58243;BME280;50118;53.232;8.252;2023-03-19T14:30:38;101259.81;;;13.20;86.66
58243;BME280;50118;53.232;8.252;2023-03-19T14:33:06;101258.16;;;13.09;89.25
58243;BME280;50118;53.232;8.252;2023-03-19T14:35:42;101258.91;;;13.01;89.32